Station Historical Data
Daily Summary for January 13, 2018 Units:  Both    English   Metric
« Previous Day
Next Day »
Daily Weekly Monthly Yearly Custom
  High: Low: Average:
Temperature: 37.6 °F /  3.1 °C 31.3 °F /  -0.4 °C 33.6 °F /  0.9 °C
Dew Point: 36 °F /  2.2 °C 24.1 °F /  -4.4 °C 29.3 °F /  -1.5 °C
Humidity: 95 % 70 % 84 %
Wind Speed: 7.6 mph /  12.2 km/h - -2.9 mph /  -4.6 km/h
Wind Gust: 7.6 mph /  12.2 km/h - -
Wind:- - South
Pressure: 30.4 in /  1029.0 hPa -100 in /  -3386.0 hPa -
Precipitation: 0 in /  0.0 mm    
Historical Graphs
 
 
Tabular Data for January 13, 2018
Time Temperature Dew Point Pressure Wind Wind Speed Wind Gust Humidity Rainfall Rate (Hourly) solar Conditions
00:01 37.6 °F /  3.1 °C 36 °F /  2.2 °C 30.4 in /  1029.0 hPa Calm     94 % 0 in /  0.0 mm meteobridge W/m2
00:07 37.6 °F /  3.1 °C 36 °F /  2.2 °C 30.4 in /  1029.0 hPa WNW 1.3 mph /  2.1 km/h 1.3 mph /  2.1 km/h 94 % 0 in /  0.0 mm meteobridge W/m2
00:13 37.6 °F /  3.1 °C 36 °F /  2.2 °C 30.4 in /  1029.0 hPa Calm     94 % 0 in /  0.0 mm meteobridge W/m2
00:19 37.6 °F /  3.1 °C 36 °F /  2.2 °C 30.4 in /  1028.0 hPa Calm     94 % 0 in /  0.0 mm meteobridge W/m2
00:25 37.6 °F /  3.1 °C 36 °F /  2.2 °C 30.4 in /  1028.0 hPa Calm     94 % 0 in /  0.0 mm meteobridge W/m2
00:31 37.6 °F /  3.1 °C 36 °F /  2.2 °C 30.4 in /  1028.0 hPa Calm     94 % 0 in /  0.0 mm meteobridge W/m2
00:37 37.6 °F /  3.1 °C 36 °F /  2.2 °C 30.4 in /  1028.0 hPa Calm     94 % 0 in /  0.0 mm meteobridge W/m2
00:43 37.6 °F /  3.1 °C 36 °F /  2.2 °C 30.4 in /  1028.0 hPa Calm     94 % 0 in /  0.0 mm meteobridge W/m2
00:57 37.4 °F /  3.0 °C 35.8 °F /  2.1 °C 30.4 in /  1028.0 hPa Calm     94 % 0 in /  0.0 mm meteobridge W/m2
01:02 37.4 °F /  3.0 °C 35.8 °F /  2.1 °C 30.4 in /  1028.0 hPa Calm   1.6 mph /  2.6 km/h 94 % 0 in /  0.0 mm meteobridge W/m2
01:09 37.2 °F /  2.9 °C 35.6 °F /  2.0 °C -100 in /  -3386.0 hPa Calm     94 % 0 in /  0.0 mm meteobridge W/m2
01:16 37.2 °F /  2.9 °C 35.6 °F /  2.0 °C 30.4 in /  1028.0 hPa Calm   1.3 mph /  2.1 km/h 94 % 0 in /  0.0 mm meteobridge W/m2
01:22 37.4 °F /  3.0 °C 35.8 °F /  2.1 °C 30.4 in /  1028.0 hPa Calm     94 % 0 in /  0.0 mm meteobridge W/m2
01:28 37.2 °F /  2.9 °C 35.6 °F /  2.0 °C 30.4 in /  1028.0 hPa Calm     94 % 0 in /  0.0 mm meteobridge W/m2
01:34 37.4 °F /  3.0 °C 35.8 °F /  2.1 °C 30.4 in /  1028.0 hPa Calm     94 % 0 in /  0.0 mm meteobridge W/m2
01:40 37.4 °F /  3.0 °C 35.8 °F /  2.1 °C 30.4 in /  1028.0 hPa Calm     94 % 0 in /  0.0 mm meteobridge W/m2
01:46 37.4 °F /  3.0 °C 35.8 °F /  2.1 °C 30.4 in /  1028.0 hPa West 1.6 mph /  2.6 km/h 4 mph /  6.4 km/h 94 % 0 in /  0.0 mm meteobridge W/m2
01:52 37.2 °F /  2.9 °C 35.6 °F /  2.0 °C 30.4 in /  1028.0 hPa WSW 2.2 mph /  3.5 km/h 2.2 mph /  3.5 km/h 94 % 0 in /  0.0 mm meteobridge W/m2
01:58 37.2 °F /  2.9 °C 35.6 °F /  2.0 °C 30.4 in /  1028.0 hPa WSW 0.9 mph /  1.4 km/h 0.9 mph /  1.4 km/h 94 % 0 in /  0.0 mm meteobridge W/m2
02:12 37 °F /  2.8 °C 35.4 °F /  1.9 °C 30.4 in /  1028.0 hPa Calm   2.7 mph /  4.3 km/h 94 % 0 in /  0.0 mm meteobridge W/m2
02:18 37 °F /  2.8 °C 35.4 °F /  1.9 °C 30.4 in /  1028.0 hPa Calm   3.6 mph /  5.8 km/h 94 % 0 in /  0.0 mm meteobridge W/m2
02:24 36.9 °F /  2.7 °C 35.2 °F /  1.8 °C 30.4 in /  1028.0 hPa WSW 6.3 mph /  10.1 km/h 6.3 mph /  10.1 km/h 94 % 0 in /  0.0 mm meteobridge W/m2
02:30 36.7 °F /  2.6 °C 35.1 °F /  1.7 °C 30.4 in /  1028.0 hPa Calm   3.6 mph /  5.8 km/h 94 % 0 in /  0.0 mm meteobridge W/m2
02:36 36.9 °F /  2.7 °C 35.2 °F /  1.8 °C 30.4 in /  1028.0 hPa Calm     94 % 0 in /  0.0 mm meteobridge W/m2
02:48 36.9 °F /  2.7 °C 35.2 °F /  1.8 °C 30.4 in /  1028.0 hPa Calm     94 % 0 in /  0.0 mm meteobridge W/m2
02:58 36.5 °F /  2.5 °C 34.9 °F /  1.6 °C 30.4 in /  1028.0 hPa Calm     94 % 0 in /  0.0 mm meteobridge W/m2
03:03 36.3 °F /  2.4 °C 34.7 °F /  1.5 °C 30.4 in /  1028.0 hPa Calm   6.3 mph /  10.1 km/h 94 % 0 in /  0.0 mm meteobridge W/m2
03:08 36 °F /  2.2 °C 34.3 °F /  1.3 °C 30.4 in /  1028.0 hPa West 3.4 mph /  5.5 km/h 3.4 mph /  5.5 km/h 94 % 0 in /  0.0 mm meteobridge W/m2
03:21 35.6 °F /  2.0 °C 34 °F /  1.1 °C 30.4 in /  1028.0 hPa Calm     94 % 0 in /  0.0 mm meteobridge W/m2
03:27 35.4 °F /  1.9 °C 33.8 °F /  1.0 °C 30.4 in /  1028.0 hPa West 3.8 mph /  6.1 km/h 3.8 mph /  6.1 km/h 94 % 0 in /  0.0 mm meteobridge W/m2
03:33 35.6 °F /  2.0 °C 34.3 °F /  1.3 °C 30.4 in /  1028.0 hPa WSW 2 mph /  3.2 km/h 2.5 mph /  4.0 km/h 95 % 0 in /  0.0 mm meteobridge W/m2
03:39 35.4 °F /  1.9 °C 34.2 °F /  1.2 °C 30.4 in /  1028.0 hPa WSW 3.8 mph /  6.1 km/h 3.8 mph /  6.1 km/h 95 % 0 in /  0.0 mm meteobridge W/m2
03:47 35.2 °F /  1.8 °C 34 °F /  1.1 °C 30.4 in /  1028.0 hPa NNE 1.3 mph /  2.1 km/h 1.3 mph /  2.1 km/h 95 % 0 in /  0.0 mm meteobridge W/m2
03:53 35.2 °F /  1.8 °C 34 °F /  1.1 °C 30.4 in /  1028.0 hPa WSW 3.4 mph /  5.5 km/h 3.4 mph /  5.5 km/h 95 % 0 in /  0.0 mm meteobridge W/m2
04:01 35.1 °F /  1.7 °C 33.8 °F /  1.0 °C 30.4 in /  1028.0 hPa West 2.9 mph /  4.7 km/h 2.9 mph /  4.7 km/h 95 % 0 in /  0.0 mm meteobridge W/m2
04:07 35.1 °F /  1.7 °C 33.4 °F /  0.8 °C 30.4 in /  1028.0 hPa Calm   1.1 mph /  1.8 km/h 94 % 0 in /  0.0 mm meteobridge W/m2
04:14 35.2 °F /  1.8 °C 33.6 °F /  0.9 °C 30.4 in /  1028.0 hPa WSW 2.5 mph /  4.0 km/h 2.5 mph /  4.0 km/h 94 % 0 in /  0.0 mm meteobridge W/m2
04:27 34.9 °F /  1.6 °C 33.1 °F /  0.6 °C 30.4 in /  1028.0 hPa Calm   1.6 mph /  2.6 km/h 93 % 0 in /  0.0 mm meteobridge W/m2
04:34 35.1 °F /  1.7 °C 32.9 °F /  0.5 °C 30.4 in /  1028.0 hPa WSW 3.8 mph /  6.1 km/h 3.8 mph /  6.1 km/h 92 % 0 in /  0.0 mm meteobridge W/m2
04:40 35.1 °F /  1.7 °C 32.9 °F /  0.5 °C 30.4 in /  1028.0 hPa WNW 2.2 mph /  3.5 km/h 2.2 mph /  3.5 km/h 92 % 0 in /  0.0 mm meteobridge W/m2
04:46 34.9 °F /  1.6 °C 32.5 °F /  0.3 °C 30.4 in /  1028.0 hPa Calm     91 % 0 in /  0.0 mm meteobridge W/m2
04:57 35.1 °F /  1.7 °C 32.7 °F /  0.4 °C 30.4 in /  1028.0 hPa Calm   3.4 mph /  5.5 km/h 91 % 0 in /  0.0 mm meteobridge W/m2
05:03 34.9 °F /  1.6 °C 32.5 °F /  0.3 °C 30.4 in /  1028.0 hPa Calm   2.7 mph /  4.3 km/h 91 % 0 in /  0.0 mm meteobridge W/m2
05:10 34.5 °F /  1.4 °C 31.8 °F /  -0.1 °C 30.4 in /  1028.0 hPa WSW 2.2 mph /  3.5 km/h 4.5 mph /  7.2 km/h 90 % 0 in /  0.0 mm meteobridge W/m2
05:16 34.7 °F /  1.5 °C 32 °F /  0.0 °C 30.4 in /  1028.0 hPa Calm   3.1 mph /  5.0 km/h 90 % 0 in /  0.0 mm meteobridge W/m2
05:25 34.5 °F /  1.4 °C 31.8 °F /  -0.1 °C 30.4 in /  1028.0 hPa West 2.7 mph /  4.3 km/h 3.8 mph /  6.1 km/h 90 % 0 in /  0.0 mm meteobridge W/m2
05:31 34.5 °F /  1.4 °C 31.8 °F /  -0.1 °C 30.4 in /  1028.0 hPa WSW 3.1 mph /  5.0 km/h 3.1 mph /  5.0 km/h 90 % 0 in /  0.0 mm meteobridge W/m2
05:38 34.3 °F /  1.3 °C 31.5 °F /  -0.3 °C 30.4 in /  1028.0 hPa Calm     89 % 0 in /  0.0 mm meteobridge W/m2
05:44 34.3 °F /  1.3 °C 31.5 °F /  -0.3 °C 30.4 in /  1028.0 hPa Calm     89 % 0 in /  0.0 mm meteobridge W/m2
05:50 34.2 °F /  1.2 °C 31.5 °F /  -0.3 °C 30.4 in /  1028.0 hPa WSW 3.8 mph /  6.1 km/h 3.8 mph /  6.1 km/h 90 % 0 in /  0.0 mm meteobridge W/m2
05:57 34.2 °F /  1.2 °C 31.5 °F /  -0.3 °C 30.4 in /  1028.0 hPa Calm     90 % 0 in /  0.0 mm meteobridge W/m2
06:04 34 °F /  1.1 °C 31.3 °F /  -0.4 °C 30.4 in /  1028.0 hPa West 4.3 mph /  6.9 km/h 4.3 mph /  6.9 km/h 90 % 0 in /  0.0 mm meteobridge W/m2
06:10 34 °F /  1.1 °C 31.3 °F /  -0.4 °C 30.4 in /  1028.0 hPa WSW 4.9 mph /  7.9 km/h 4.9 mph /  7.9 km/h 90 % 0 in /  0.0 mm meteobridge W/m2
06:16 34 °F /  1.1 °C 31.3 °F /  -0.4 °C 30.4 in /  1028.0 hPa WSW 4 mph /  6.4 km/h 4 mph /  6.4 km/h 90 % 0 in /  0.0 mm meteobridge W/m2
06:25 34 °F /  1.1 °C 31.3 °F /  -0.4 °C 30.4 in /  1028.0 hPa WSW 4 mph /  6.4 km/h 4 mph /  6.4 km/h 90 % 0 in /  0.0 mm meteobridge W/m2
06:31 33.8 °F /  1.0 °C 30.9 °F /  -0.6 °C 30.4 in /  1028.0 hPa SW 2.5 mph /  4.0 km/h 3.6 mph /  5.8 km/h 89 % 0 in /  0.0 mm meteobridge W/m2
06:44 33.8 °F /  1.0 °C 30.9 °F /  -0.6 °C 30.4 in /  1028.0 hPa West 6 mph /  9.7 km/h 6 mph /  9.7 km/h 89 % 0 in /  0.0 mm meteobridge W/m2
06:49 33.8 °F /  1.0 °C 30.9 °F /  -0.6 °C 30.4 in /  1028.0 hPa West 3.4 mph /  5.5 km/h 3.4 mph /  5.5 km/h 89 % 0 in /  0.0 mm meteobridge W/m2
06:55 33.8 °F /  1.0 °C 30.4 °F /  -0.9 °C 30.4 in /  1028.0 hPa Calm   2.9 mph /  4.7 km/h 87 % 0 in /  0.0 mm meteobridge W/m2
07:01 33.6 °F /  0.9 °C 30.2 °F /  -1.0 °C 30.4 in /  1028.0 hPa West 4.3 mph /  6.9 km/h 4.3 mph /  6.9 km/h 87 % 0 in /  0.0 mm meteobridge W/m2
07:08 33.6 °F /  0.9 °C 29.8 °F /  -1.2 °C 30.4 in /  1028.0 hPa WSW 2.7 mph /  4.3 km/h 2.7 mph /  4.3 km/h 86 % 0 in /  0.0 mm meteobridge W/m2
07:14 33.4 °F /  0.8 °C 29.7 °F /  -1.3 °C 30.4 in /  1028.0 hPa WSW 7.6 mph /  12.2 km/h 7.6 mph /  12.2 km/h 86 % 0 in /  0.0 mm meteobridge W/m2
07:20 33.4 °F /  0.8 °C 29.7 °F /  -1.3 °C 30.4 in /  1028.0 hPa WSW 2.9 mph /  4.7 km/h 2.9 mph /  4.7 km/h 86 % 0 in /  0.0 mm meteobridge W/m2
07:33 33.3 °F /  0.7 °C 29.5 °F /  -1.4 °C 30.4 in /  1028.0 hPa WSW 1.6 mph /  2.6 km/h 4.7 mph /  7.6 km/h 86 % 0 in /  0.0 mm meteobridge W/m2
07:40 33.3 °F /  0.7 °C 29.5 °F /  -1.4 °C 30.4 in /  1028.0 hPa West 3.1 mph /  5.0 km/h 3.1 mph /  5.0 km/h 86 % 0 in /  0.0 mm meteobridge W/m2
07:50 33.3 °F /  0.7 °C 29.5 °F /  -1.4 °C 30.4 in /  1028.0 hPa WSW 2.9 mph /  4.7 km/h 2.9 mph /  4.7 km/h 86 % 0 in /  0.0 mm meteobridge W/m2
07:57 33.3 °F /  0.7 °C 29.5 °F /  -1.4 °C 30.4 in /  1028.0 hPa Calm     86 % 0 in /  0.0 mm meteobridge W/m2
08:03 33.1 °F /  0.6 °C 29.3 °F /  -1.5 °C 30.4 in /  1028.0 hPa Calm   1.1 mph /  1.8 km/h 86 % 0 in /  0.0 mm meteobridge W/m2
08:10 33.1 °F /  0.6 °C 29.3 °F /  -1.5 °C 30.4 in /  1028.0 hPa WSW 1.1 mph /  1.8 km/h 2 mph /  3.2 km/h 86 % 0 in /  0.0 mm meteobridge W/m2
08:16 32.9 °F /  0.5 °C 29.1 °F /  -1.6 °C 30.4 in /  1028.0 hPa WSW 3.6 mph /  5.8 km/h 3.6 mph /  5.8 km/h 86 % 0 in /  0.0 mm meteobridge W/m2
08:23 33.1 °F /  0.6 °C 29.7 °F /  -1.3 °C 30.4 in /  1028.0 hPa WSW 2.5 mph /  4.0 km/h 2.5 mph /  4.0 km/h 87 % 0 in /  0.0 mm meteobridge W/m2
08:29 32.9 °F /  0.5 °C 29.5 °F /  -1.4 °C 30.4 in /  1028.0 hPa WNW 2.2 mph /  3.5 km/h 3.1 mph /  5.0 km/h 87 % 0 in /  0.0 mm meteobridge W/m2
08:36 32.9 °F /  0.5 °C 29.5 °F /  -1.4 °C 30.4 in /  1028.0 hPa WSW 5.8 mph /  9.3 km/h 5.8 mph /  9.3 km/h 87 % 0 in /  0.0 mm meteobridge W/m2
08:42 32.9 °F /  0.5 °C 29.5 °F /  -1.4 °C 30.4 in /  1028.0 hPa ESE 0.9 mph /  1.4 km/h 6.5 mph /  10.5 km/h 87 % 0 in /  0.0 mm meteobridge W/m2
08:53 32.7 °F /  0.4 °C 29.3 °F /  -1.5 °C 30.4 in /  1029.0 hPa WSW 0.9 mph /  1.4 km/h 6.3 mph /  10.1 km/h 87 % 0 in /  0.0 mm meteobridge W/m2
08:59 32.7 °F /  0.4 °C 28.9 °F /  -1.7 °C 30.4 in /  1029.0 hPa WSW 3.4 mph /  5.5 km/h 3.4 mph /  5.5 km/h 86 % 0 in /  0.0 mm meteobridge W/m2
09:04 32.7 °F /  0.4 °C 28.9 °F /  -1.7 °C 30.4 in /  1029.0 hPa WSW 7.2 mph /  11.6 km/h 7.2 mph /  11.6 km/h 86 % 0 in /  0.0 mm meteobridge W/m2
09:10 32.5 °F /  0.3 °C 28.8 °F /  -1.8 °C 30.4 in /  1028.0 hPa WNW 7.6 mph /  12.2 km/h 7.6 mph /  12.2 km/h 86 % 0 in /  0.0 mm meteobridge W/m2
09:27 32.7 °F /  0.4 °C 28.9 °F /  -1.7 °C 30.4 in /  1028.0 hPa WNW 4.9 mph /  7.9 km/h 4.9 mph /  7.9 km/h 86 % 0 in /  0.0 mm meteobridge W/m2
09:33 32.7 °F /  0.4 °C 28.9 °F /  -1.7 °C 30.4 in /  1029.0 hPa WSW 2 mph /  3.2 km/h 2 mph /  3.2 km/h 86 % 0 in /  0.0 mm meteobridge W/m2
09:40 32.7 °F /  0.4 °C 28.9 °F /  -1.7 °C 30.4 in /  1029.0 hPa WSW 3.6 mph /  5.8 km/h 4 mph /  6.4 km/h 86 % 0 in /  0.0 mm meteobridge W/m2
09:46 32.9 °F /  0.5 °C 29.1 °F /  -1.6 °C 30.4 in /  1029.0 hPa WSW 2.9 mph /  4.7 km/h 4.5 mph /  7.2 km/h 86 % 0 in /  0.0 mm meteobridge W/m2
09:53 32.7 °F /  0.4 °C 28.9 °F /  -1.7 °C 30.4 in /  1029.0 hPa WNW 5.4 mph /  8.7 km/h 5.4 mph /  8.7 km/h 86 % 0 in /  0.0 mm meteobridge W/m2
10:01 32.7 °F /  0.4 °C 28.9 °F /  -1.7 °C 30.4 in /  1029.0 hPa WSW 4.3 mph /  6.9 km/h 4.3 mph /  6.9 km/h 86 % 0 in /  0.0 mm meteobridge W/m2
10:06 32.9 °F /  0.5 °C 29.1 °F /  -1.6 °C 30.4 in /  1029.0 hPa WNW 3.4 mph /  5.5 km/h 3.6 mph /  5.8 km/h 86 % 0 in /  0.0 mm meteobridge W/m2
10:12 32.7 °F /  0.4 °C 28.9 °F /  -1.7 °C 30.4 in /  1029.0 hPa WSW 4.3 mph /  6.9 km/h 4.3 mph /  6.9 km/h 86 % 0 in /  0.0 mm meteobridge W/m2
10:29 33.1 °F /  0.6 °C 29.1 °F /  -1.6 °C 30.4 in /  1029.0 hPa WSW 1.1 mph /  1.8 km/h 3.1 mph /  5.0 km/h 85 % 0 in /  0.0 mm meteobridge W/m2
10:44 32.9 °F /  0.5 °C 28.9 °F /  -1.7 °C 30.4 in /  1029.0 hPa West 3.1 mph /  5.0 km/h 5.8 mph /  9.3 km/h 85 % 0 in /  0.0 mm meteobridge W/m2
10:50 33.1 °F /  0.6 °C 29.1 °F /  -1.6 °C 30.4 in /  1029.0 hPa West 3.1 mph /  5.0 km/h 3.1 mph /  5.0 km/h 85 % 0 in /  0.0 mm meteobridge W/m2
10:58 33.1 °F /  0.6 °C 29.1 °F /  -1.6 °C 30.4 in /  1029.0 hPa Calm     85 % 0 in /  0.0 mm meteobridge W/m2
11:04 33.3 °F /  0.7 °C 28.9 °F /  -1.7 °C 30.4 in /  1029.0 hPa WNW 2.5 mph /  4.0 km/h 4.7 mph /  7.6 km/h 84 % 0 in /  0.0 mm meteobridge W/m2
11:17 33.3 °F /  0.7 °C 28.9 °F /  -1.7 °C 30.4 in /  1029.0 hPa Calm     84 % 0 in /  0.0 mm meteobridge W/m2
11:22 33.4 °F /  0.8 °C 29.1 °F /  -1.6 °C 30.4 in /  1029.0 hPa WSW 2.7 mph /  4.3 km/h 2.7 mph /  4.3 km/h 84 % 0 in /  0.0 mm meteobridge W/m2
11:28 33.6 °F /  0.9 °C 29.3 °F /  -1.5 °C 30.4 in /  1029.0 hPa West 2.5 mph /  4.0 km/h 2.5 mph /  4.0 km/h 84 % 0 in /  0.0 mm meteobridge W/m2
11:34 33.8 °F /  1.0 °C 29.5 °F /  -1.4 °C 30.4 in /  1029.0 hPa WSW 2.2 mph /  3.5 km/h 2.9 mph /  4.7 km/h 84 % 0 in /  0.0 mm meteobridge W/m2
11:41 33.6 °F /  0.9 °C 29.3 °F /  -1.5 °C 30.4 in /  1029.0 hPa East 3.8 mph /  6.1 km/h 3.8 mph /  6.1 km/h 84 % 0 in /  0.0 mm meteobridge W/m2
11:47 33.6 °F /  0.9 °C 29.3 °F /  -1.5 °C 30.4 in /  1029.0 hPa WSW 3.6 mph /  5.8 km/h 3.6 mph /  5.8 km/h 84 % 0 in /  0.0 mm meteobridge W/m2
11:52 33.6 °F /  0.9 °C 29.3 °F /  -1.5 °C 30.4 in /  1029.0 hPa East 1.3 mph /  2.1 km/h 1.3 mph /  2.1 km/h 84 % 0 in /  0.0 mm meteobridge W/m2
11:58 34 °F /  1.1 °C 29.7 °F /  -1.3 °C 30.4 in /  1029.0 hPa WSW 2.5 mph /  4.0 km/h 2.5 mph /  4.0 km/h 84 % 0 in /  0.0 mm meteobridge W/m2
12:04 33.6 °F /  0.9 °C 28.9 °F /  -1.7 °C 30.4 in /  1029.0 hPa WSW 3.8 mph /  6.1 km/h 3.8 mph /  6.1 km/h 83 % 0 in /  0.0 mm meteobridge W/m2
12:11 33.8 °F /  1.0 °C 29.1 °F /  -1.6 °C 30.4 in /  1029.0 hPa WSW 2.5 mph /  4.0 km/h 2.5 mph /  4.0 km/h 83 % 0 in /  0.0 mm meteobridge W/m2
12:17 33.6 °F /  0.9 °C 28.9 °F /  -1.7 °C 30.4 in /  1029.0 hPa WSW 2.5 mph /  4.0 km/h 4.9 mph /  7.9 km/h 83 % 0 in /  0.0 mm meteobridge W/m2
12:22 33.6 °F /  0.9 °C 28.9 °F /  -1.7 °C 30.4 in /  1029.0 hPa WSW 1.1 mph /  1.8 km/h 3.6 mph /  5.8 km/h 83 % 0 in /  0.0 mm meteobridge W/m2
12:28 33.6 °F /  0.9 °C 28.9 °F /  -1.7 °C 30.4 in /  1029.0 hPa WSW 1.1 mph /  1.8 km/h 2.5 mph /  4.0 km/h 83 % 0 in /  0.0 mm meteobridge W/m2
12:34 33.8 °F /  1.0 °C 29.1 °F /  -1.6 °C 30.4 in /  1029.0 hPa WSW 3.4 mph /  5.5 km/h 3.4 mph /  5.5 km/h 83 % 0 in /  0.0 mm meteobridge W/m2
12:41 33.6 °F /  0.9 °C 28.9 °F /  -1.7 °C 30.4 in /  1029.0 hPa West 4.9 mph /  7.9 km/h 4.9 mph /  7.9 km/h 83 % 0 in /  0.0 mm meteobridge W/m2
12:54 33.6 °F /  0.9 °C 28.9 °F /  -1.7 °C 30.4 in /  1029.0 hPa WSW 6.3 mph /  10.1 km/h 6.3 mph /  10.1 km/h 83 % 0 in /  0.0 mm meteobridge W/m2
13:02 33.6 °F /  0.9 °C 28.9 °F /  -1.7 °C 30.4 in /  1029.0 hPa WSW 4 mph /  6.4 km/h -998.7 mph /  -1607.4 km/h 83 % 0 in /  0.0 mm meteobridge W/m2
13:08 33.6 °F /  0.9 °C 28.9 °F /  -1.7 °C 30.4 in /  1028.0 hPa WSW 4 mph /  6.4 km/h -998.7 mph /  -1607.4 km/h 83 % 0 in /  0.0 mm meteobridge W/m2
13:20 33.4 °F /  0.8 °C 28.6 °F /  -1.9 °C 30.4 in /  1028.0 hPa North -999.5 mph /  -1608.8 km/h -998.7 mph /  -1607.4 km/h 82 % 0 in /  0.0 mm meteobridge W/m2
13:51 33.4 °F /  0.8 °C 28.6 °F /  -1.9 °C 30.4 in /  1028.0 hPa WSW 3.8 mph /  6.1 km/h 3.8 mph /  6.1 km/h 82 % 0 in /  0.0 mm meteobridge W/m2
13:57 33.4 °F /  0.8 °C 28.6 °F /  -1.9 °C 30.4 in /  1028.0 hPa NW 2.5 mph /  4.0 km/h 2.5 mph /  4.0 km/h 82 % 0 in /  0.0 mm meteobridge W/m2
14:11 33.4 °F /  0.8 °C 28.2 °F /  -2.1 °C 30.4 in /  1028.0 hPa WSW 3.8 mph /  6.1 km/h 3.8 mph /  6.1 km/h 81 % 0 in /  0.0 mm meteobridge W/m2
14:17 33.4 °F /  0.8 °C 28.2 °F /  -2.1 °C 30.4 in /  1028.0 hPa WSW 3.8 mph /  6.1 km/h -998.7 mph /  -1607.4 km/h 81 % 0 in /  0.0 mm meteobridge W/m2
14:35 33.6 °F /  0.9 °C 28 °F /  -2.2 °C 30.4 in /  1028.0 hPa West 2.9 mph /  4.7 km/h 2.9 mph /  4.7 km/h 80 % 0 in /  0.0 mm meteobridge W/m2
14:41 33.4 °F /  0.8 °C 27.7 °F /  -2.4 °C 30.4 in /  1028.0 hPa WSW 4.3 mph /  6.9 km/h 4.3 mph /  6.9 km/h 79 % 0 in /  0.0 mm meteobridge W/m2
14:47 33.4 °F /  0.8 °C 27.7 °F /  -2.4 °C 30.4 in /  1028.0 hPa Calm   2 mph /  3.2 km/h 79 % 0 in /  0.0 mm meteobridge W/m2
14:53 33.3 °F /  0.7 °C 27.1 °F /  -2.7 °C 30.4 in /  1028.0 hPa West 2 mph /  3.2 km/h 2.5 mph /  4.0 km/h 78 % 0 in /  0.0 mm meteobridge W/m2
14:59 33.3 °F /  0.7 °C 27.1 °F /  -2.7 °C 30.4 in /  1028.0 hPa WSW 2.9 mph /  4.7 km/h 2.9 mph /  4.7 km/h 78 % 0 in /  0.0 mm meteobridge W/m2
15:06 33.3 °F /  0.7 °C 27.1 °F /  -2.7 °C 30.4 in /  1028.0 hPa NNW 2.7 mph /  4.3 km/h 2.7 mph /  4.3 km/h 78 % 0 in /  0.0 mm meteobridge W/m2
15:13 33.3 °F /  0.7 °C 27.1 °F /  -2.7 °C 30.4 in /  1028.0 hPa WSW 2.7 mph /  4.3 km/h -998.7 mph /  -1607.4 km/h 78 % 0 in /  0.0 mm meteobridge W/m2
15:19 33.1 °F /  0.6 °C 26.6 °F /  -3.0 °C 30.4 in /  1028.0 hPa WSW 2 mph /  3.2 km/h 3.4 mph /  5.5 km/h 77 % 0 in /  0.0 mm meteobridge W/m2
15:35 33.1 °F /  0.6 °C 26.1 °F /  -3.3 °C 30.4 in /  1028.0 hPa SW 5.6 mph /  9.0 km/h 5.6 mph /  9.0 km/h 75 % 0 in /  0.0 mm meteobridge W/m2
15:41 33.1 °F /  0.6 °C 26.1 °F /  -3.3 °C 30.4 in /  1028.0 hPa WSW 2.9 mph /  4.7 km/h 3.4 mph /  5.5 km/h 75 % 0 in /  0.0 mm meteobridge W/m2
15:47 33.1 °F /  0.6 °C 26.1 °F /  -3.3 °C 30.4 in /  1028.0 hPa WSW 4.3 mph /  6.9 km/h 4.3 mph /  6.9 km/h 75 % 0 in /  0.0 mm meteobridge W/m2
15:57 33.1 °F /  0.6 °C 26.1 °F /  -3.3 °C 30.4 in /  1028.0 hPa WSW 3.4 mph /  5.5 km/h 3.4 mph /  5.5 km/h 75 % 0 in /  0.0 mm meteobridge W/m2
16:03 32.9 °F /  0.5 °C 25.5 °F /  -3.6 °C 30.4 in /  1028.0 hPa WSW 3.1 mph /  5.0 km/h 3.8 mph /  6.1 km/h 74 % 0 in /  0.0 mm meteobridge W/m2
16:09 32.7 °F /  0.4 °C 25.3 °F /  -3.7 °C 30.4 in /  1028.0 hPa NE 1.6 mph /  2.6 km/h 1.6 mph /  2.6 km/h 74 % 0 in /  0.0 mm meteobridge W/m2
16:10 32.7 °F /  0.4 °C 25.3 °F /  -3.7 °C 30.4 in /  1028.0 hPa NE 1.6 mph /  2.6 km/h 1.6 mph /  2.6 km/h 74 % 0 in /  0.0 mm meteobridge W/m2
16:15 32.5 °F /  0.3 °C 24.8 °F /  -4.0 °C 30.4 in /  1028.0 hPa SW 1.1 mph /  1.8 km/h 1.1 mph /  1.8 km/h 73 % 0 in /  0.0 mm meteobridge W/m2
16:20 32.5 °F /  0.3 °C 24.8 °F /  -4.0 °C 30.4 in /  1028.0 hPa WSW 4.3 mph /  6.9 km/h 4.3 mph /  6.9 km/h 73 % 0 in /  0.0 mm meteobridge W/m2
16:30 32.4 °F /  0.2 °C 24.3 °F /  -4.3 °C 30.4 in /  1028.0 hPa WSW 2 mph /  3.2 km/h 2 mph /  3.2 km/h 72 % 0 in /  0.0 mm meteobridge W/m2
16:37 32.4 °F /  0.2 °C 24.3 °F /  -4.3 °C 30.4 in /  1028.0 hPa WSW 2 mph /  3.2 km/h 2 mph /  3.2 km/h 72 % 0 in /  0.0 mm meteobridge W/m2
16:43 32.5 °F /  0.3 °C 24.4 °F /  -4.2 °C 30.4 in /  1028.0 hPa West 0.9 mph /  1.4 km/h 3.4 mph /  5.5 km/h 72 % 0 in /  0.0 mm meteobridge W/m2
16:49 32.7 °F /  0.4 °C 24.4 °F /  -4.2 °C 30.4 in /  1028.0 hPa Calm     71 % 0 in /  0.0 mm meteobridge W/m2
16:55 32.5 °F /  0.3 °C 24.3 °F /  -4.3 °C 30.4 in /  1028.0 hPa West 2.9 mph /  4.7 km/h 2.9 mph /  4.7 km/h 71 % 0 in /  0.0 mm meteobridge W/m2
17:01 32.5 °F /  0.3 °C 24.3 °F /  -4.3 °C 30.4 in /  1028.0 hPa West 1.1 mph /  1.8 km/h 2 mph /  3.2 km/h 71 % 0 in /  0.0 mm meteobridge W/m2
17:07 32.7 °F /  0.4 °C 24.4 °F /  -4.2 °C 30.4 in /  1028.0 hPa WSW 2 mph /  3.2 km/h 2 mph /  3.2 km/h 71 % 0 in /  0.0 mm meteobridge W/m2
17:13 32.7 °F /  0.4 °C 24.4 °F /  -4.2 °C 30.4 in /  1028.0 hPa WSW 2.2 mph /  3.5 km/h 2.2 mph /  3.5 km/h 71 % 0 in /  0.0 mm meteobridge W/m2
17:21 32.7 °F /  0.4 °C 24.4 °F /  -4.2 °C 30.4 in /  1028.0 hPa Calm   1.6 mph /  2.6 km/h 71 % 0 in /  0.0 mm meteobridge W/m2
17:27 32.7 °F /  0.4 °C 24.4 °F /  -4.2 °C 30.4 in /  1028.0 hPa WSW 2 mph /  3.2 km/h 2 mph /  3.2 km/h 71 % 0 in /  0.0 mm meteobridge W/m2
17:33 32.7 °F /  0.4 °C 24.4 °F /  -4.2 °C 30.4 in /  1028.0 hPa WSW 0.9 mph /  1.4 km/h 1.6 mph /  2.6 km/h 71 % 0 in /  0.0 mm meteobridge W/m2
17:42 32.7 °F /  0.4 °C 24.1 °F /  -4.4 °C 30.4 in /  1028.0 hPa SW 1.1 mph /  1.8 km/h 3.6 mph /  5.8 km/h 70 % 0 in /  0.0 mm meteobridge W/m2
17:48 32.7 °F /  0.4 °C 24.1 °F /  -4.4 °C 30.4 in /  1028.0 hPa Calm   3.6 mph /  5.8 km/h 70 % 0 in /  0.0 mm meteobridge W/m2
17:57 33.1 °F /  0.6 °C 24.6 °F /  -4.1 °C 30.4 in /  1028.0 hPa Calm     71 % 0 in /  0.0 mm meteobridge W/m2
18:09 32.9 °F /  0.5 °C 25.2 °F /  -3.8 °C 30.4 in /  1028.0 hPa Calm   0.9 mph /  1.4 km/h 73 % 0 in /  0.0 mm meteobridge W/m2
18:15 33.1 °F /  0.6 °C 25.3 °F /  -3.7 °C 30.4 in /  1028.0 hPa WSW 2 mph /  3.2 km/h 2 mph /  3.2 km/h 73 % 0 in /  0.0 mm meteobridge W/m2
18:21 33.1 °F /  0.6 °C 26.1 °F /  -3.3 °C 30.4 in /  1028.0 hPa WSW 1.6 mph /  2.6 km/h 2 mph /  3.2 km/h 75 % 0 in /  0.0 mm meteobridge W/m2
18:29 33.1 °F /  0.6 °C 26.1 °F /  -3.3 °C 30.4 in /  1028.0 hPa Calm   1.1 mph /  1.8 km/h 75 % 0 in /  0.0 mm meteobridge W/m2
18:35 32.9 °F /  0.5 °C 26.4 °F /  -3.1 °C 30.4 in /  1028.0 hPa WSW 3.4 mph /  5.5 km/h 3.4 mph /  5.5 km/h 77 % 0 in /  0.0 mm meteobridge W/m2
18:42 32.7 °F /  0.4 °C 26.2 °F /  -3.2 °C 30.4 in /  1028.0 hPa WSW 4.3 mph /  6.9 km/h 4.3 mph /  6.9 km/h 77 % 0 in /  0.0 mm meteobridge W/m2
18:47 32.4 °F /  0.2 °C 26.2 °F /  -3.2 °C 30.4 in /  1028.0 hPa WSW 2.9 mph /  4.7 km/h 2.9 mph /  4.7 km/h 78 % 0 in /  0.0 mm meteobridge W/m2
18:53 32.4 °F /  0.2 °C 26.2 °F /  -3.2 °C 30.4 in /  1028.0 hPa WSW 2.5 mph /  4.0 km/h 3.1 mph /  5.0 km/h 78 % 0 in /  0.0 mm meteobridge W/m2
18:59 32.4 °F /  0.2 °C 26.2 °F /  -3.2 °C 30.4 in /  1028.0 hPa WSW 2.9 mph /  4.7 km/h 2.9 mph /  4.7 km/h 78 % 0 in /  0.0 mm meteobridge W/m2
19:05 32.2 °F /  0.1 °C 26.1 °F /  -3.3 °C 30.4 in /  1028.0 hPa WSW 3.1 mph /  5.0 km/h 3.1 mph /  5.0 km/h 78 % 0 in /  0.0 mm meteobridge W/m2
19:17 32.2 °F /  0.1 °C 26.4 °F /  -3.1 °C 30.4 in /  1028.0 hPa West 2.5 mph /  4.0 km/h 2.5 mph /  4.0 km/h 79 % 0 in /  0.0 mm meteobridge W/m2
19:23 31.8 °F /  -0.1 °C 26.1 °F /  -3.3 °C 30.4 in /  1028.0 hPa SSW 1.1 mph /  1.8 km/h 1.3 mph /  2.1 km/h 79 % 0 in /  0.0 mm meteobridge W/m2
19:29 31.5 °F /  -0.3 °C 25.7 °F /  -3.5 °C 30.4 in /  1028.0 hPa SW 1.6 mph /  2.6 km/h 3.6 mph /  5.8 km/h 79 % 0 in /  0.0 mm meteobridge W/m2
19:35 31.6 °F /  -0.2 °C 26.2 °F /  -3.2 °C 30.4 in /  1028.0 hPa NNW 0.9 mph /  1.4 km/h 3.4 mph /  5.5 km/h 80 % 0 in /  0.0 mm meteobridge W/m2
19:43 31.3 °F /  -0.4 °C 25.9 °F /  -3.4 °C 30.4 in /  1028.0 hPa WSW 2.9 mph /  4.7 km/h 3.4 mph /  5.5 km/h 80 % 0 in /  0.0 mm meteobridge W/m2
19:51 31.5 °F /  -0.3 °C 26.1 °F /  -3.3 °C 30.4 in /  1028.0 hPa Calm     80 % 0 in /  0.0 mm meteobridge W/m2
19:57 31.6 °F /  -0.2 °C 26.4 °F /  -3.1 °C 30.4 in /  1028.0 hPa West 2 mph /  3.2 km/h 2 mph /  3.2 km/h 81 % 0 in /  0.0 mm meteobridge W/m2
19:58 31.5 °F /  -0.3 °C 26.1 °F /  -3.3 °C 30.4 in /  1028.0 hPa WSW 1.1 mph /  1.8 km/h 1.6 mph /  2.6 km/h 80 % 0 in /  0.0 mm meteobridge W/m2
20:05 31.6 °F /  -0.2 °C 26.4 °F /  -3.1 °C 30.4 in /  1028.0 hPa Calm     81 % 0 in /  0.0 mm meteobridge W/m2
20:11 31.6 °F /  -0.2 °C 26.4 °F /  -3.1 °C 30.4 in /  1028.0 hPa WSW 3.8 mph /  6.1 km/h 3.8 mph /  6.1 km/h 81 % 0 in /  0.0 mm meteobridge W/m2
20:17 31.8 °F /  -0.1 °C 26.6 °F /  -3.0 °C 30.4 in /  1028.0 hPa Calm     81 % 0 in /  0.0 mm meteobridge W/m2
20:23 32 °F /  0.0 °C 26.8 °F /  -2.9 °C 30.4 in /  1028.0 hPa WSW 1.3 mph /  2.1 km/h 2.9 mph /  4.7 km/h 81 % 0 in /  0.0 mm meteobridge W/m2
20:29 31.8 °F /  -0.1 °C 26.6 °F /  -3.0 °C 30.4 in /  1028.0 hPa WSW 5.8 mph /  9.3 km/h -998.7 mph /  -1607.4 km/h 81 % 0 in /  0.0 mm meteobridge W/m2
20:35 31.6 °F /  -0.2 °C 26.2 °F /  -3.2 °C 30.4 in /  1028.0 hPa WSW 4 mph /  6.4 km/h 4 mph /  6.4 km/h 80 % 0 in /  0.0 mm meteobridge W/m2
20:41 31.6 °F /  -0.2 °C 26.2 °F /  -3.2 °C 30.4 in /  1028.0 hPa WSW 0.9 mph /  1.4 km/h 2 mph /  3.2 km/h 80 % 0 in /  0.0 mm meteobridge W/m2
20:47 31.6 °F /  -0.2 °C 26.2 °F /  -3.2 °C 30.4 in /  1028.0 hPa WSW 5.4 mph /  8.7 km/h 5.4 mph /  8.7 km/h 80 % 0 in /  0.0 mm meteobridge W/m2
20:53 31.8 °F /  -0.1 °C 26.4 °F /  -3.1 °C 30.4 in /  1028.0 hPa WSW 1.6 mph /  2.6 km/h 2.7 mph /  4.3 km/h 80 % 0 in /  0.0 mm meteobridge W/m2
21:04 31.5 °F /  -0.3 °C 26.1 °F /  -3.3 °C 30.4 in /  1028.0 hPa WSW 7.4 mph /  11.9 km/h 7.4 mph /  11.9 km/h 80 % 0 in /  0.0 mm meteobridge W/m2
21:11 31.5 °F /  -0.3 °C 26.1 °F /  -3.3 °C 30.4 in /  1028.0 hPa West 0.9 mph /  1.4 km/h 1.1 mph /  1.8 km/h 80 % 0 in /  0.0 mm meteobridge W/m2
21:18 31.6 °F /  -0.2 °C 26.2 °F /  -3.2 °C 30.4 in /  1028.0 hPa West 2.7 mph /  4.3 km/h 2.7 mph /  4.3 km/h 80 % 0 in /  0.0 mm meteobridge W/m2
21:24 31.6 °F /  -0.2 °C 26.2 °F /  -3.2 °C 30.4 in /  1028.0 hPa Calm   2.9 mph /  4.7 km/h 80 % 0 in /  0.0 mm meteobridge W/m2
21:30 31.8 °F /  -0.1 °C 26.4 °F /  -3.1 °C 30.4 in /  1028.0 hPa WSW 3.6 mph /  5.8 km/h 4.7 mph /  7.6 km/h 80 % 0 in /  0.0 mm meteobridge W/m2
21:36 31.8 °F /  -0.1 °C 26.4 °F /  -3.1 °C 30.4 in /  1028.0 hPa Calm   2.9 mph /  4.7 km/h 80 % 0 in /  0.0 mm meteobridge W/m2
21:42 31.8 °F /  -0.1 °C 26.4 °F /  -3.1 °C 30.4 in /  1028.0 hPa South 0.9 mph /  1.4 km/h 2.9 mph /  4.7 km/h 80 % 0 in /  0.0 mm meteobridge W/m2
21:48 31.8 °F /  -0.1 °C 26.4 °F /  -3.1 °C 30.3 in /  1027.0 hPa West 3.4 mph /  5.5 km/h 3.4 mph /  5.5 km/h 80 % 0 in /  0.0 mm meteobridge W/m2
21:54 31.8 °F /  -0.1 °C 26.4 °F /  -3.1 °C 30.3 in /  1027.0 hPa WSW 2.9 mph /  4.7 km/h 2.9 mph /  4.7 km/h 80 % 0 in /  0.0 mm meteobridge W/m2
22:00 31.8 °F /  -0.1 °C 26.4 °F /  -3.1 °C 30.3 in /  1027.0 hPa WSW 3.8 mph /  6.1 km/h 3.8 mph /  6.1 km/h 80 % 0 in /  0.0 mm meteobridge W/m2
22:06 31.8 °F /  -0.1 °C 26.4 °F /  -3.1 °C 30.3 in /  1027.0 hPa ENE 2.2 mph /  3.5 km/h 3.6 mph /  5.8 km/h 80 % 0 in /  0.0 mm meteobridge W/m2
22:12 32 °F /  0.0 °C 26.6 °F /  -3.0 °C 30.3 in /  1027.0 hPa West 1.1 mph /  1.8 km/h 1.1 mph /  1.8 km/h 80 % 0 in /  0.0 mm meteobridge W/m2
22:18 31.8 °F /  -0.1 °C 26.4 °F /  -3.1 °C 30.3 in /  1027.0 hPa WSW 5.6 mph /  9.0 km/h 5.6 mph /  9.0 km/h 80 % 0 in /  0.0 mm meteobridge W/m2
22:28 31.8 °F /  -0.1 °C 26.4 °F /  -3.1 °C 30.3 in /  1027.0 hPa WSW 2.5 mph /  4.0 km/h 5.6 mph /  9.0 km/h 80 % 0 in /  0.0 mm meteobridge W/m2
22:41 32 °F /  0.0 °C 26.8 °F /  -2.9 °C 30.3 in /  1027.0 hPa WSW 2.7 mph /  4.3 km/h 3.1 mph /  5.0 km/h 81 % 0 in /  0.0 mm meteobridge W/m2
22:47 31.8 °F /  -0.1 °C 26.4 °F /  -3.1 °C 30.3 in /  1027.0 hPa WSW 3.4 mph /  5.5 km/h 3.4 mph /  5.5 km/h 80 % 0 in /  0.0 mm meteobridge W/m2
22:54 31.8 °F /  -0.1 °C 26.6 °F /  -3.0 °C 30.3 in /  1027.0 hPa WSW 1.6 mph /  2.6 km/h 2.7 mph /  4.3 km/h 81 % 0 in /  0.0 mm meteobridge W/m2
23:00 32 °F /  0.0 °C 26.8 °F /  -2.9 °C 30.3 in /  1027.0 hPa Calm   1.6 mph /  2.6 km/h 81 % 0 in /  0.0 mm meteobridge W/m2
23:07 32 °F /  0.0 °C 26.8 °F /  -2.9 °C 30.3 in /  1027.0 hPa WSW 2.5 mph /  4.0 km/h 2.5 mph /  4.0 km/h 81 % 0 in /  0.0 mm meteobridge W/m2
23:13 31.8 °F /  -0.1 °C 26.6 °F /  -3.0 °C 30.3 in /  1027.0 hPa WSW 2 mph /  3.2 km/h 3.4 mph /  5.5 km/h 81 % 0 in /  0.0 mm meteobridge W/m2
23:20 31.8 °F /  -0.1 °C 26.6 °F /  -3.0 °C 30.3 in /  1027.0 hPa West 4 mph /  6.4 km/h 4 mph /  6.4 km/h 81 % 0 in /  0.0 mm meteobridge W/m2
23:26 31.8 °F /  -0.1 °C 26.6 °F /  -3.0 °C 30.3 in /  1027.0 hPa WSW 5.4 mph /  8.7 km/h 5.4 mph /  8.7 km/h 81 % 0 in /  0.0 mm meteobridge W/m2
23:34 31.5 °F /  -0.3 °C 26.2 °F /  -3.2 °C 30.3 in /  1027.0 hPa WSW 2 mph /  3.2 km/h 2.9 mph /  4.7 km/h 81 % 0 in /  0.0 mm meteobridge W/m2
23:41 31.3 °F /  -0.4 °C 26.4 °F /  -3.1 °C 30.3 in /  1027.0 hPa Calm   2.7 mph /  4.3 km/h 82 % 0 in /  0.0 mm meteobridge W/m2
23:47 31.6 °F /  -0.2 °C 26.8 °F /  -2.9 °C 30.3 in /  1027.0 hPa WSW 2.5 mph /  4.0 km/h 2.5 mph /  4.0 km/h 82 % 0 in /  0.0 mm meteobridge W/m2
23:53 31.8 °F /  -0.1 °C 27 °F /  -2.8 °C 30.3 in /  1027.0 hPa West 1.3 mph /  2.1 km/h 4 mph /  6.4 km/h 82 % 0 in /  0.0 mm meteobridge W/m2
23:59 32 °F /  0.0 °C 27.1 °F /  -2.7 °C 30.3 in /  1027.0 hPa Calm   3.4 mph /  5.5 km/h 82 % 0 in /  0.0 mm meteobridge W/m2
Juneau County Weather
Compliments of Weather Underground - 2.25 mb